Resende, Brazil
Current Conditions -  °F | °C
As of 6:00 AM on Thursday 29 Jan 2015 (Local Time) from SBGW Reporting Station
Broken Clouds Broken Clouds  
Wind Chill: 72°   Ceiling: 1500
Heat Index: 72°   Visibility: 4mi
Dew Point: 66°   Wind: 3mph
Humidity: 83%   Direction: 160°SSE
Pressure: 29.97"   Gusts: NA
Location:  22.46°S, 44.45°W
Report Text: SBGW 290800Z 16003KT 6000 BKN015 22/19 Q1015
Loading
Personal Weather Stations






























Interactive Weather Map New forecast layout! Learn more

10-Day Weather Forecast

Advertisements
Track Severe Weather on mobile